createdAt,value
2022-10-06T00:02:23.716Z,8.80
2022-10-06T00:07:26.600Z,8.70
2022-10-06T00:12:29.332Z,8.60
2022-10-06T00:17:31.960Z,8.60
2022-10-06T00:22:40.403Z,8.60
2022-10-06T00:27:45.337Z,8.40
2022-10-06T00:33:01.017Z,8.40
2022-10-06T00:38:05.168Z,8.30
2022-10-06T00:43:27.723Z,8.30
2022-10-06T00:48:32.014Z,8.10
2022-10-06T00:53:35.827Z,8.00
2022-10-06T00:58:39.260Z,7.90
2022-10-06T01:03:48.312Z,7.90
2022-10-06T01:08:51.971Z,7.80
2022-10-06T01:13:55.830Z,7.80
2022-10-06T01:18:59.595Z,7.70
2022-10-06T01:24:03.984Z,7.60
2022-10-06T01:29:07.608Z,7.50
2022-10-06T01:34:11.011Z,7.40
2022-10-06T01:39:14.133Z,7.20
2022-10-06T01:44:16.894Z,7.00
2022-10-06T01:49:19.717Z,6.90
2022-10-06T01:54:22.627Z,6.80
2022-10-06T01:59:25.468Z,6.80
2022-10-06T02:04:28.567Z,6.70
2022-10-06T02:09:31.633Z,6.70
2022-10-06T02:14:35.038Z,6.80
2022-10-06T02:19:37.714Z,6.80
2022-10-06T02:24:40.459Z,6.90
2022-10-06T02:29:43.218Z,6.90
2022-10-06T02:34:46.073Z,6.80
2022-10-06T02:39:48.905Z,6.80
2022-10-06T02:44:52.507Z,6.90
2022-10-06T02:49:55.283Z,6.90
2022-10-06T02:54:58.076Z,7.00
2022-10-06T03:00:00.762Z,7.00
2022-10-06T03:05:06.633Z,7.10
2022-10-06T03:10:10.512Z,7.10
2022-10-06T03:15:13.837Z,7.00
2022-10-06T03:20:16.750Z,7.00
2022-10-06T03:25:19.513Z,7.10
2022-10-06T03:30:22.287Z,7.00
2022-10-06T03:35:26.017Z,7.00
2022-10-06T03:40:28.934Z,7.00
2022-10-06T03:45:32.071Z,6.90
2022-10-06T03:50:34.979Z,6.90
2022-10-06T03:55:37.860Z,6.90
2022-10-06T04:00:40.840Z,6.80
2022-10-06T04:05:53.597Z,6.70
2022-10-06T04:11:04.653Z,6.80
2022-10-06T04:16:18.383Z,6.60
2022-10-06T04:21:22.156Z,6.70
2022-10-06T04:26:30.756Z,6.60
2022-10-06T04:31:37.433Z,6.60
2022-10-06T04:36:42.821Z,6.60
2022-10-06T04:41:50.799Z,6.60
2022-10-06T04:47:05.608Z,6.50
2022-10-06T04:52:08.662Z,6.50
2022-10-06T04:57:13.822Z,6.50
2022-10-06T05:02:16.784Z,6.40
2022-10-06T05:07:20.764Z,6.50
2022-10-06T05:12:24.156Z,6.60
2022-10-06T05:17:27.135Z,6.60
2022-10-06T05:22:30.154Z,6.80
2022-10-06T05:27:33.977Z,6.80
2022-10-06T05:32:36.961Z,6.90
2022-10-06T05:37:40.539Z,7.00
2022-10-06T05:42:43.528Z,7.00
2022-10-06T05:47:47.371Z,7.10
2022-10-06T05:52:51.353Z,7.30
2022-10-06T05:57:55.514Z,7.60
2022-10-06T06:02:58.755Z,7.80
2022-10-06T06:08:01.675Z,9.20
2022-10-06T06:13:04.915Z,9.20
2022-10-06T06:18:21.694Z,9.30
2022-10-06T06:23:31.256Z,10.00
2022-10-06T06:28:35.844Z,9.90
2022-10-06T06:33:41.434Z,10.20
2022-10-06T06:38:52.114Z,10.10
2022-10-06T06:44:00.343Z,10.40
2022-10-06T06:49:12.456Z,10.70
2022-10-06T06:54:20.782Z,10.80
2022-10-06T06:59:27.763Z,11.00
2022-10-06T07:04:33.280Z,11.90
2022-10-06T07:09:36.413Z,12.00
2022-10-06T07:15:07.432Z,12.00
2022-10-06T07:20:33.164Z,12.30
2022-10-06T07:25:36.114Z,12.50
2022-10-06T07:30:45.151Z,12.20
2022-10-06T07:35:50.135Z,12.20
2022-10-06T07:46:22.718Z,13.00
2022-10-06T07:52:00.944Z,14.40
2022-10-06T07:57:03.813Z,14.40
2022-10-06T08:02:07.140Z,14.00
2022-10-06T08:07:12.933Z,13.90
2022-10-06T08:12:33.853Z,13.70
2022-10-06T08:17:37.436Z,13.80
2022-10-06T08:22:40.988Z,14.10
2022-10-06T08:27:44.508Z,15.20
2022-10-06T08:32:47.804Z,17.80
2022-10-06T08:37:50.751Z,20.70
2022-10-06T08:42:59.339Z,22.10
2022-10-06T08:48:29.038Z,23.50
2022-10-06T08:54:02.042Z,20.40
2022-10-06T08:59:08.584Z,20.30
2022-10-06T09:04:29.221Z,20.70
2022-10-06T09:09:54.109Z,23.10
2022-10-06T09:15:13.432Z,21.30
2022-10-06T09:20:35.505Z,24.00
2022-10-06T09:25:38.525Z,21.80
2022-10-06T09:30:43.219Z,20.70
2022-10-06T09:36:10.064Z,20.40
2022-10-06T09:41:13.756Z,20.40
2022-10-06T09:46:34.525Z,22.00
2022-10-06T09:51:38.355Z,22.50
2022-10-06T09:56:45.143Z,23.70
2022-10-06T10:01:56.098Z,24.30
2022-10-06T10:07:24.588Z,25.00
2022-10-06T10:12:33.133Z,26.80
2022-10-06T10:17:42.998Z,27.20
2022-10-06T10:22:48.581Z,26.90
2022-10-06T10:28:06.247Z,27.40
2022-10-06T10:33:15.937Z,27.50
2022-10-06T10:38:27.186Z,26.70
2022-10-06T10:43:33.386Z,28.30
2022-10-06T10:49:01.717Z,27.40
2022-10-06T10:54:15.456Z,26.90
2022-10-06T10:59:27.758Z,26.80
2022-10-06T11:04:31.514Z,25.70
2022-10-06T11:10:06.122Z,25.00
2022-10-06T11:15:17.938Z,26.90
2022-10-06T11:20:38.874Z,26.90
2022-10-06T11:25:50.685Z,26.60
2022-10-06T11:31:10.432Z,26.50
2022-10-06T11:36:20.654Z,26.70
2022-10-06T11:41:32.315Z,26.70
2022-10-06T11:46:45.191Z,26.10
2022-10-06T11:51:48.214Z,26.40
2022-10-06T11:56:51.039Z,27.50
2022-10-06T12:01:55.362Z,26.60
2022-10-06T12:06:59.172Z,27.10
2022-10-06T12:12:20.204Z,27.20
2022-10-06T12:17:33.074Z,26.70
2022-10-06T12:22:44.718Z,26.30
2022-10-06T12:28:06.350Z,25.20
2022-10-06T12:33:18.953Z,23.60
2022-10-06T12:38:43.688Z,22.60
2022-10-06T12:43:54.138Z,21.90
2022-10-06T12:49:25.452Z,21.50
2022-10-06T12:54:38.907Z,21.40
2022-10-06T12:59:42.652Z,21.70
2022-10-06T13:04:50.261Z,21.50
2022-10-06T13:10:14.924Z,21.20
2022-10-06T13:15:28.095Z,21.30
2022-10-06T13:20:38.641Z,23.70
2022-10-06T13:25:44.762Z,24.70
2022-10-06T13:30:52.106Z,24.90
2022-10-06T13:35:55.564Z,24.40
2022-10-06T13:41:06.134Z,24.70
2022-10-06T13:46:15.963Z,25.20
2022-10-06T13:51:23.783Z,25.40
2022-10-06T13:56:33.106Z,25.40
2022-10-06T14:01:36.031Z,25.70
2022-10-06T14:06:45.634Z,24.60
2022-10-06T14:11:48.868Z,24.10
2022-10-06T14:16:53.690Z,24.70
2022-10-06T14:21:56.542Z,25.00
2022-10-06T14:27:04.732Z,25.00
2022-10-06T14:32:17.981Z,24.70
2022-10-06T14:37:20.876Z,24.60
2022-10-06T14:42:24.620Z,23.40
2022-10-06T14:47:27.783Z,22.90
2022-10-06T14:52:30.632Z,22.30
2022-10-06T14:57:34.005Z,21.80
2022-10-06T15:02:36.839Z,21.40
2022-10-06T15:07:58.403Z,21.00
2022-10-06T15:13:01.232Z,20.70
2022-10-06T15:18:04.552Z,20.60
2022-10-06T15:23:07.364Z,20.30
2022-10-06T15:28:32.409Z,20.00
2022-10-06T15:33:37.023Z,19.60
2022-10-06T15:38:40.124Z,19.20
2022-10-06T15:43:55.454Z,18.90
2022-10-06T15:49:15.675Z,18.60
2022-10-06T15:54:24.283Z,18.40
2022-10-06T15:59:29.502Z,18.20
2022-10-06T16:04:39.948Z,18.10
2022-10-06T16:09:48.124Z,17.90
2022-10-06T16:14:51.412Z,17.70
2022-10-06T16:19:54.253Z,17.60
2022-10-06T16:24:57.014Z,17.40
2022-10-06T16:29:59.783Z,17.40
2022-10-06T16:35:02.523Z,17.20
2022-10-06T16:40:05.778Z,17.00
2022-10-06T16:45:08.931Z,17.00
2022-10-06T16:50:12.134Z,16.80
2022-10-06T16:55:14.937Z,16.80
2022-10-06T17:00:17.976Z,16.70
2022-10-06T17:05:20.785Z,16.60
2022-10-06T17:10:23.444Z,16.40
2022-10-06T17:15:29.010Z,16.30
2022-10-06T17:20:34.174Z,16.20
2022-10-06T17:25:37.163Z,16.00
2022-10-06T17:30:39.935Z,15.80
2022-10-06T17:35:42.850Z,15.60
2022-10-06T17:40:45.715Z,15.50
2022-10-06T17:45:49.045Z,15.40
2022-10-06T17:51:00.566Z,15.50
2022-10-06T17:56:08.058Z,15.60
2022-10-06T18:01:14.090Z,15.60
2022-10-06T18:06:18.370Z,15.50
2022-10-06T18:11:41.500Z,15.50
2022-10-06T18:16:56.856Z,15.50
2022-10-06T18:22:11.859Z,15.50
2022-10-06T18:27:15.301Z,15.50
2022-10-06T18:37:41.160Z,15.30
2022-10-06T18:42:44.226Z,15.20
2022-10-06T18:48:05.333Z,15.20
2022-10-06T18:53:08.338Z,15.10
2022-10-06T18:58:11.035Z,15.10
2022-10-06T19:03:13.719Z,15.00
2022-10-06T19:08:16.653Z,15.00
2022-10-06T19:13:22.195Z,14.90
2022-10-06T19:18:25.065Z,14.90
2022-10-06T19:23:28.145Z,14.90
2022-10-06T19:28:32.884Z,14.90
2022-10-06T19:33:36.125Z,14.80
2022-10-06T19:38:39.135Z,14.80
2022-10-06T19:43:42.164Z,14.70
2022-10-06T19:48:44.972Z,14.50
2022-10-06T19:53:51.554Z,14.40
2022-10-06T19:58:54.300Z,14.30
2022-10-06T20:03:57.291Z,14.30
2022-10-06T20:09:06.733Z,14.30
2022-10-06T20:14:15.851Z,14.30
2022-10-06T20:19:25.892Z,14.40
2022-10-06T20:24:29.054Z,14.20
2022-10-06T20:29:31.993Z,14.30
2022-10-06T20:34:35.104Z,14.10
2022-10-06T20:39:56.225Z,14.20
2022-10-06T20:44:58.944Z,14.10
2022-10-06T20:50:01.721Z,14.00
2022-10-06T20:55:06.522Z,13.90
2022-10-06T21:00:10.069Z,13.90
2022-10-06T21:05:12.839Z,13.80
2022-10-06T21:10:15.748Z,13.70
2022-10-06T21:15:18.606Z,13.70
2022-10-06T21:20:21.495Z,13.70
2022-10-06T21:25:24.319Z,13.60
2022-10-06T21:30:27.500Z,13.50
2022-10-06T21:35:30.309Z,13.50
2022-10-06T21:40:37.511Z,13.60
2022-10-06T21:45:40.393Z,13.50
2022-10-06T21:50:43.280Z,13.40
2022-10-06T21:55:46.141Z,13.40
2022-10-06T22:00:48.991Z,13.40
2022-10-06T22:05:52.553Z,13.30
2022-10-06T22:10:55.379Z,13.30
2022-10-06T22:16:01.216Z,13.20
2022-10-06T22:21:18.169Z,13.20
2022-10-06T22:26:21.293Z,13.20
2022-10-06T22:31:26.404Z,13.10
2022-10-06T22:36:29.540Z,13.10
2022-10-06T22:41:32.333Z,13.00
2022-10-06T22:46:36.924Z,13.00
2022-10-06T22:51:39.830Z,13.20
2022-10-06T22:56:42.624Z,13.00
2022-10-06T23:01:45.389Z,12.90
2022-10-06T23:06:48.181Z,12.80
2022-10-06T23:11:51.019Z,12.60
2022-10-06T23:16:53.861Z,12.40
2022-10-06T23:21:56.648Z,12.30
2022-10-06T23:27:04.538Z,12.10
2022-10-06T23:32:07.558Z,11.90
2022-10-06T23:37:10.298Z,11.80
2022-10-06T23:42:13.522Z,11.60
2022-10-06T23:47:16.302Z,11.40
2022-10-06T23:52:19.122Z,11.30
2022-10-06T23:57:21.868Z,11.30
